Accueil
METAR-TAF:

METAR-TAF

Aéroports :

Puvirnituq, Québec, Canada

latitude: 60-03N, longitude: 077-17W, altitude: 23 m

Observation

Le bulletin a été fait il y a 20 minutes, à 12:32 UTC
Vent 16 kt de nord/nord-ouest
Température -1°C
Humidité 80%
Pression 1019 hPa
Visibilité: 14.5 km
Ciel couvert à une hauteur de 2700 ft
neige faible

METAR: CYPX 011232Z AUTO 34016KT 9SM -SN OVC027 M01/M04 A3008 RMK SLP188

Heure: 08:52 (12:52 UTC)

Prévision

Le bulletin a été fait il y a 1 heure et 14 minutes, à 11:38 UTC
Prévision valable du 01 à 12 UTC au 01 à 24 UTC
Vent 12 kt de ouest/nord-ouest
Visibilité: 10 km
Ciel couvert à une hauteur de 3000 ft
Temporairement
du 01 à 12 UTC au 01 à 24 UTC
Ciel couvert à une hauteur de 2000 ft
neige faible, brume

TAF: CYPX 011138Z 0112/0124 30012KT P6SM OVC030 TEMPO 0112/0124 21/2SM -SN BR OVC020 RMK FCST BASED ON AUTO OBS. NXT FCST BY 011800Z

Observations et prévisions météorologiques de plus de 4000 aéroports (messages METAR et TAF).

Les stations disponibles sont représentées par des disques jaunes et rouges sur la carte.

Passer la souris dessus pour voir le nom de la station.

Cliquer dessus pour voir les observations et prévisions météorologiques.

Pour changer de carte: cliquez sur les boutons verts avec une croix noire pour zoomer, sur le bouton vert avec un tiret pour effectuer un zoom arrière, ou sur les flèches vertes pour les cartes adjacentes.


METAR-TAF: